createdAt,value
2018-05-15T00:01:08.592Z,6.80
2018-05-15T00:06:36.818Z,8.00
2018-05-15T00:12:04.986Z,7.10
2018-05-15T00:17:39.140Z,6.57
2018-05-15T00:23:11.476Z,6.70
2018-05-15T00:28:40.510Z,5.50
2018-05-15T00:34:12.537Z,6.23
2018-05-15T00:39:40.695Z,6.43
2018-05-15T00:45:08.865Z,4.63
2018-05-15T00:50:37.093Z,5.30
2018-05-15T00:56:05.248Z,4.80
2018-05-15T01:01:34.307Z,4.57
2018-05-15T01:07:02.468Z,5.40
2018-05-15T01:12:31.392Z,5.60
2018-05-15T01:18:00.275Z,5.63
2018-05-15T01:23:28.452Z,5.83
2018-05-15T01:28:57.353Z,5.50
2018-05-15T01:34:25.566Z,5.67
2018-05-15T01:39:54.442Z,5.13
2018-05-15T01:45:22.573Z,5.20
2018-05-15T01:50:51.483Z,5.20
2018-05-15T01:56:19.632Z,6.63
2018-05-15T02:01:48.544Z,5.80
2018-05-15T02:07:16.675Z,5.80
2018-05-15T02:12:44.824Z,5.87
2018-05-15T02:18:12.966Z,5.97
2018-05-15T02:23:41.145Z,5.33
2018-05-15T02:29:10.074Z,5.43
2018-05-15T02:34:39.007Z,5.67
2018-05-15T02:40:07.939Z,6.13
2018-05-15T02:45:36.132Z,5.23
2018-05-15T02:51:04.304Z,6.10
2018-05-15T02:56:33.254Z,5.73
2018-05-15T03:02:01.439Z,7.47
2018-05-15T03:07:34.343Z,6.30
2018-05-15T03:13:02.556Z,7.10
2018-05-15T03:18:30.903Z,7.20
2018-05-15T03:23:59.036Z,6.70
2018-05-15T03:29:27.969Z,9.63
2018-05-15T03:34:56.116Z,6.50
2018-05-15T03:40:24.269Z,6.77
2018-05-15T03:45:52.414Z,6.83
2018-05-15T03:51:28.715Z,7.27
2018-05-15T03:56:56.904Z,6.57
2018-05-15T04:08:41.855Z,6.83
2018-05-15T04:14:09.937Z,7.30
2018-05-15T04:19:38.149Z,6.70
2018-05-15T04:25:06.342Z,6.50
2018-05-15T04:30:34.502Z,5.63
2018-05-15T04:36:04.655Z,5.90
2018-05-15T04:41:33.985Z,6.47
2018-05-15T04:47:02.161Z,6.07
2018-05-15T04:52:31.078Z,5.87
2018-05-15T04:57:59.246Z,6.30
2018-05-15T05:03:27.367Z,6.63
2018-05-15T05:08:55.516Z,6.70
2018-05-15T05:14:23.681Z,6.70
2018-05-15T05:19:52.581Z,6.93
2018-05-15T05:25:20.737Z,7.60
2018-05-15T05:30:48.880Z,7.50
2018-05-15T05:36:17.021Z,7.10
2018-05-15T05:41:45.160Z,6.13
2018-05-15T05:47:13.306Z,7.07
2018-05-15T05:52:41.490Z,6.20
2018-05-15T05:58:09.640Z,7.00
2018-05-15T06:03:37.877Z,7.50
2018-05-15T06:09:06.800Z,7.90
2018-05-15T06:14:34.972Z,7.67
2018-05-15T06:20:03.137Z,8.20
2018-05-15T06:25:31.287Z,7.23
2018-05-15T06:31:00.224Z,7.50
2018-05-15T06:36:29.132Z,8.00
2018-05-15T06:41:57.289Z,7.37
2018-05-15T06:47:25.437Z,7.87
2018-05-15T06:52:53.576Z,9.27
2018-05-15T06:58:21.735Z,8.30
2018-05-15T07:03:50.659Z,9.20
2018-05-15T07:09:18.817Z,8.03
2018-05-15T07:14:46.959Z,8.37
2018-05-15T07:20:15.096Z,8.30
2018-05-15T07:25:43.275Z,8.60
2018-05-15T07:31:11.446Z,8.80
2018-05-15T07:36:39.641Z,7.80
2018-05-15T07:42:07.824Z,7.40
2018-05-15T07:47:35.967Z,9.10
2018-05-15T07:53:04.152Z,7.43
2018-05-15T07:58:33.098Z,7.73
2018-05-15T08:04:01.241Z,4.90
2018-05-15T08:09:29.401Z,5.27
2018-05-15T08:14:57.728Z,6.73
2018-05-15T08:20:25.898Z,7.23
2018-05-15T08:25:54.062Z,5.57
2018-05-15T08:31:22.210Z,5.53
2018-05-15T08:36:51.132Z,5.80
2018-05-15T08:42:19.256Z,6.70
2018-05-15T08:47:47.403Z,7.07
2018-05-15T08:53:15.553Z,7.47
2018-05-15T08:58:43.687Z,7.73
2018-05-15T09:04:11.839Z,6.03
2018-05-15T09:09:40.750Z,5.27
2018-05-15T09:15:08.952Z,6.80
2018-05-15T09:20:37.136Z,6.50
2018-05-15T09:26:06.123Z,6.27
2018-05-15T09:31:34.307Z,7.57
2018-05-15T09:37:02.472Z,8.40
2018-05-15T09:42:30.617Z,8.37
2018-05-15T09:47:59.530Z,7.33
2018-05-15T09:53:27.673Z,8.07
2018-05-15T09:58:55.829Z,8.13
2018-05-15T10:04:23.987Z,8.37
2018-05-15T10:09:52.125Z,6.77
2018-05-15T10:15:20.269Z,7.50
2018-05-15T10:20:49.174Z,6.03
2018-05-15T10:26:17.323Z,8.50
2018-05-15T10:31:45.471Z,7.20
2018-05-15T10:37:13.701Z,8.80
2018-05-15T10:42:41.771Z,10.60
2018-05-15T10:48:09.942Z,9.70
2018-05-15T10:53:38.106Z,8.90
2018-05-15T10:59:06.297Z,8.43
2018-05-15T11:04:34.504Z,9.30
2018-05-15T11:10:02.995Z,8.67
2018-05-15T11:15:31.168Z,8.60
2018-05-15T11:21:17.271Z,8.90
2018-05-15T11:26:45.408Z,9.73
2018-05-15T11:32:13.554Z,10.27
2018-05-15T11:37:41.714Z,10.67
2018-05-15T11:43:10.640Z,11.87
2018-05-15T11:48:39.174Z,11.77
2018-05-15T11:54:07.001Z,11.97
2018-05-15T11:59:35.184Z,12.47
2018-05-15T12:05:03.352Z,13.33
2018-05-15T12:10:31.553Z,12.83
2018-05-15T12:15:59.668Z,11.20
2018-05-15T12:21:28.576Z,13.37
2018-05-15T12:26:56.737Z,16.10
2018-05-15T12:32:25.670Z,14.37
2018-05-15T12:37:54.580Z,19.27
2018-05-15T12:43:22.720Z,14.57
2018-05-15T12:48:51.669Z,16.30
2018-05-15T12:54:19.793Z,17.60
2018-05-15T12:59:47.942Z,14.80
2018-05-15T13:05:16.094Z,13.30
2018-05-15T13:10:44.237Z,9.40
2018-05-15T13:16:13.148Z,9.97
2018-05-15T13:21:41.293Z,10.13
2018-05-15T13:27:10.197Z,10.40
2018-05-15T13:32:38.350Z,11.13
2018-05-15T13:38:07.259Z,10.83
2018-05-15T13:43:35.458Z,10.10
2018-05-15T13:49:03.653Z,9.30
2018-05-15T13:54:32.304Z,10.10
2018-05-15T14:00:00.458Z,9.53
2018-05-15T14:05:28.608Z,9.80
2018-05-15T14:10:57.503Z,8.80
2018-05-15T14:16:25.647Z,8.70
2018-05-15T14:21:53.793Z,7.30
2018-05-15T14:27:21.949Z,8.80
2018-05-15T14:32:50.113Z,8.20
2018-05-15T14:38:19.034Z,7.60
2018-05-15T14:43:47.172Z,7.27
2018-05-15T14:49:16.074Z,8.60
2018-05-15T14:54:44.230Z,7.47
2018-05-15T15:00:13.141Z,7.80
2018-05-15T15:05:41.324Z,7.80
2018-05-15T15:11:09.519Z,8.37
2018-05-15T15:16:37.672Z,7.93
2018-05-15T15:22:05.858Z,7.50
2018-05-15T15:27:34.006Z,7.43
2018-05-15T15:33:02.198Z,6.63
2018-05-15T15:38:30.346Z,7.60
2018-05-15T15:43:58.480Z,6.77
2018-05-15T15:49:26.638Z,6.80
2018-05-15T15:54:55.536Z,6.97
2018-05-15T16:00:23.659Z,7.00
2018-05-15T16:05:51.835Z,7.97
2018-05-15T16:11:19.997Z,7.13
2018-05-15T16:16:48.137Z,8.03
2018-05-15T16:22:16.287Z,7.97
2018-05-15T16:27:44.446Z,7.00
2018-05-15T16:33:12.616Z,8.07
2018-05-15T16:38:46.157Z,7.57
2018-05-15T16:44:15.077Z,6.80
2018-05-15T16:49:44.131Z,7.47
2018-05-15T16:55:13.047Z,7.27
2018-05-15T17:00:41.237Z,7.20
2018-05-15T17:06:09.356Z,7.50
2018-05-15T17:11:37.557Z,6.83
2018-05-15T17:17:05.851Z,6.67
2018-05-15T17:22:34.862Z,5.87
2018-05-15T17:28:03.125Z,6.00
2018-05-15T17:33:32.079Z,3.60
2018-05-15T17:39:00.252Z,5.10
2018-05-15T17:44:28.406Z,6.00
2018-05-15T17:49:57.318Z,6.43
2018-05-15T17:55:27.398Z,7.10
2018-05-15T18:00:56.303Z,5.90
2018-05-15T18:06:24.456Z,6.33
2018-05-15T18:11:53.384Z,7.80
2018-05-15T18:17:21.550Z,7.07
2018-05-15T18:22:49.716Z,7.40
2018-05-15T18:28:17.856Z,7.13
2018-05-15T18:33:46.834Z,8.00
2018-05-15T18:39:16.413Z,6.83
2018-05-15T18:44:44.541Z,5.80
2018-05-15T18:50:12.825Z,5.13
2018-05-15T18:55:41.131Z,3.93
2018-05-15T19:01:09.391Z,5.00
2018-05-15T19:06:37.585Z,4.87
2018-05-15T19:12:06.828Z,4.93
2018-05-15T19:17:35.179Z,4.90
2018-05-15T19:23:03.555Z,5.30
2018-05-15T19:28:32.531Z,4.47
2018-05-15T19:34:00.723Z,4.30
2018-05-15T19:39:33.824Z,4.07
2018-05-15T19:45:02.767Z,5.07
2018-05-15T19:50:31.001Z,5.83
2018-05-15T19:55:59.937Z,5.40
2018-05-15T20:01:28.061Z,6.53
2018-05-15T20:06:56.992Z,6.47
2018-05-15T20:12:25.936Z,5.60
2018-05-15T20:17:54.893Z,5.30
2018-05-15T20:23:24.072Z,6.03
2018-05-15T20:28:52.205Z,6.07
2018-05-15T20:34:20.369Z,7.50
2018-05-15T20:39:49.380Z,6.67
2018-05-15T20:45:17.528Z,7.67
2018-05-15T20:50:46.489Z,6.80
2018-05-15T20:56:14.698Z,6.70
2018-05-15T21:01:42.856Z,6.03
2018-05-15T21:07:11.043Z,6.73
2018-05-15T21:12:39.207Z,7.60
2018-05-15T21:18:07.494Z,6.40
2018-05-15T21:23:35.588Z,8.03
2018-05-15T21:29:04.603Z,7.83
2018-05-15T21:34:32.799Z,9.10
2018-05-15T21:40:00.980Z,8.70
2018-05-15T21:45:29.130Z,10.30
2018-05-15T21:50:57.306Z,10.23
2018-05-15T21:56:26.236Z,15.90
2018-05-15T22:01:55.124Z,11.37
2018-05-15T22:07:23.264Z,11.77
2018-05-15T22:13:09.411Z,11.63
2018-05-15T22:18:56.445Z,10.80
2018-05-15T22:24:31.584Z,11.27
2018-05-15T22:30:00.502Z,11.00
2018-05-15T22:35:28.656Z,11.50
2018-05-15T22:40:56.808Z,12.07
2018-05-15T22:46:24.964Z,11.60
2018-05-15T22:51:53.115Z,11.90
2018-05-15T22:57:21.297Z,11.33
2018-05-15T23:02:49.439Z,12.60
2018-05-15T23:08:18.352Z,12.60
2018-05-15T23:13:46.506Z,14.07
2018-05-15T23:19:15.419Z,12.80
2018-05-15T23:24:43.560Z,14.23
2018-05-15T23:30:12.517Z,14.37
2018-05-15T23:35:40.670Z,14.67
2018-05-15T23:41:08.836Z,13.00
2018-05-15T23:46:37.778Z,14.70
2018-05-15T23:52:06.721Z,15.27
2018-05-15T23:57:34.909Z,15.57
